createdAt,value
2018-04-07T00:00:15.685Z,3.00
2018-04-07T00:01:15.850Z,4.10
2018-04-07T00:02:16.054Z,6.40
2018-04-07T00:03:16.184Z,4.50
2018-04-07T00:04:16.346Z,3.80
2018-04-07T00:05:16.513Z,5.00
2018-04-07T00:06:16.681Z,4.10
2018-04-07T00:07:16.858Z,7.50
2018-04-07T00:08:17.019Z,5.30
2018-04-07T00:09:17.186Z,5.10
2018-04-07T00:10:17.351Z,3.30
2018-04-07T00:11:17.524Z,5.60
2018-04-07T00:12:17.684Z,4.80
2018-04-07T00:13:17.881Z,8.10
2018-04-07T00:14:18.025Z,7.10
2018-04-07T00:15:18.190Z,7.00
2018-04-07T00:16:18.349Z,7.00
2018-04-07T00:17:18.518Z,5.30
2018-04-07T00:18:18.698Z,5.20
2018-04-07T00:19:18.836Z,4.60
2018-04-07T00:20:19.003Z,5.40
2018-04-07T00:21:19.168Z,6.00
2018-04-07T00:22:19.329Z,4.70
2018-04-07T00:23:19.493Z,6.70
2018-04-07T00:24:19.662Z,4.60
2018-04-07T00:25:19.832Z,6.20
2018-04-07T00:26:19.998Z,5.60
2018-04-07T00:27:20.157Z,7.80
2018-04-07T00:28:20.318Z,6.00
2018-04-07T00:29:20.493Z,4.80
2018-04-07T00:30:20.654Z,6.30
2018-04-07T00:31:20.816Z,4.70
2018-04-07T00:32:20.982Z,5.30
2018-04-07T00:33:21.148Z,5.20
2018-04-07T00:34:21.308Z,4.20
2018-04-07T00:35:21.476Z,5.50
2018-04-07T00:36:21.636Z,8.40
2018-04-07T00:37:21.797Z,6.40
2018-04-07T00:38:21.957Z,4.70
2018-04-07T00:39:22.166Z,6.40
2018-04-07T00:40:22.293Z,6.10
2018-04-07T00:41:22.476Z,4.80
2018-04-07T00:42:22.628Z,5.00
2018-04-07T00:43:22.790Z,5.30
2018-04-07T00:44:23.110Z,7.20
2018-04-07T00:45:23.241Z,7.10
2018-04-07T00:46:23.434Z,6.60
2018-04-07T00:47:23.710Z,4.80
2018-04-07T00:48:23.612Z,7.00
2018-04-07T00:49:23.886Z,6.00
2018-04-07T00:50:24.056Z,4.40
2018-04-07T00:52:57.740Z,5.80
2018-04-07T00:53:57.404Z,6.40
2018-04-07T00:54:57.566Z,3.80
2018-04-07T00:55:57.732Z,5.50
2018-04-07T00:56:57.896Z,5.30
2018-04-07T00:57:58.058Z,5.20
2018-04-07T00:58:58.223Z,7.20
2018-04-07T00:59:58.392Z,5.80
2018-04-07T01:00:58.554Z,6.00
2018-04-07T01:01:58.720Z,5.00
2018-04-07T01:02:58.901Z,6.10
2018-04-07T01:03:59.086Z,7.20
2018-04-07T01:04:59.251Z,5.70
2018-04-07T01:05:59.414Z,7.50
2018-04-07T01:06:59.580Z,4.50
2018-04-07T01:07:59.744Z,4.50
2018-04-07T01:08:59.908Z,6.10
2018-04-07T01:10:00.102Z,6.00
2018-04-07T01:11:00.396Z,5.60
2018-04-07T01:12:00.425Z,8.20
2018-04-07T01:13:00.580Z,4.70
2018-04-07T01:14:00.748Z,5.80
2018-04-07T01:15:00.917Z,6.10
2018-04-07T01:16:01.079Z,8.10
2018-04-07T01:17:01.240Z,5.20
2018-04-07T01:18:01.409Z,20.20
2018-04-07T01:19:01.580Z,9.10
2018-04-07T01:20:01.799Z,9.40
2018-04-07T01:21:01.932Z,15.40
2018-04-07T01:22:02.085Z,13.50
2018-04-07T01:23:02.261Z,12.50
2018-04-07T01:24:02.421Z,10.40
2018-04-07T01:25:02.582Z,11.40
2018-04-07T01:26:02.739Z,8.00
2018-04-07T01:27:02.913Z,9.30
2018-04-07T01:28:03.081Z,8.00
2018-04-07T01:29:03.244Z,10.50
2018-04-07T01:30:03.405Z,9.20
2018-04-07T01:31:03.699Z,9.50
2018-04-07T01:32:03.741Z,8.80
2018-04-07T01:33:03.903Z,10.20
2018-04-07T01:34:04.067Z,7.70
2018-04-07T01:35:04.234Z,7.80
2018-04-07T01:36:04.394Z,10.30
2018-04-07T01:37:04.676Z,7.60
2018-04-07T01:38:04.711Z,10.00
2018-04-07T01:39:04.880Z,8.20
2018-04-07T01:40:05.044Z,8.30
2018-04-07T01:41:05.208Z,7.00
2018-04-07T01:42:05.368Z,6.70
2018-04-07T01:43:05.538Z,6.30
2018-04-07T01:44:05.698Z,6.70
2018-04-07T01:45:05.856Z,8.10
2018-04-07T01:46:06.025Z,7.00
2018-04-07T01:47:06.179Z,5.00
2018-04-07T01:48:06.343Z,7.00
2018-04-07T01:49:06.518Z,7.10
2018-04-07T01:50:06.680Z,8.70
2018-04-07T01:51:06.846Z,7.00
2018-04-07T01:52:07.005Z,7.30
2018-04-07T01:53:07.169Z,10.80
2018-04-07T01:54:07.327Z,7.90
2018-04-07T01:55:07.667Z,8.70
2018-04-07T01:56:07.609Z,8.40
2018-04-07T01:57:07.780Z,6.70
2018-04-07T01:58:07.942Z,8.70
2018-04-07T01:59:08.106Z,8.20
2018-04-07T02:00:08.270Z,9.50
2018-04-07T02:01:08.445Z,7.00
2018-04-07T02:02:08.615Z,9.80
2018-04-07T02:03:08.749Z,8.20
2018-04-07T02:04:08.915Z,7.40
2018-04-07T02:05:09.081Z,8.30
2018-04-07T02:06:09.247Z,11.80
2018-04-07T02:07:09.396Z,7.40
2018-04-07T02:08:09.554Z,8.70
2018-04-07T02:09:09.726Z,6.50
2018-04-07T02:10:09.889Z,7.30
2018-04-07T02:11:10.119Z,9.40
2018-04-07T02:12:10.159Z,8.50
2018-04-07T02:13:10.329Z,8.60
2018-04-07T02:14:10.486Z,7.20
2018-04-07T02:15:10.652Z,5.70
2018-04-07T02:16:10.816Z,8.00
2018-04-07T02:17:10.978Z,5.90
2018-04-07T02:18:11.156Z,7.50
2018-04-07T02:19:11.303Z,7.80
2018-04-07T02:20:11.473Z,7.40
2018-04-07T02:21:11.626Z,6.50
2018-04-07T02:22:11.788Z,7.20
2018-04-07T02:23:11.946Z,7.50
2018-04-07T02:24:12.108Z,6.50
2018-04-07T02:25:12.272Z,7.80
2018-04-07T02:26:12.492Z,8.40
2018-04-07T02:27:12.619Z,5.10
2018-04-07T02:28:12.782Z,7.00
2018-04-07T02:29:12.947Z,5.60
2018-04-07T02:30:13.107Z,6.30
2018-04-07T02:31:13.267Z,6.90
2018-04-07T02:32:13.428Z,6.80
2018-04-07T02:33:13.668Z,5.60
2018-04-07T02:34:13.752Z,7.00
2018-04-07T02:35:13.985Z,4.70
2018-04-07T02:36:14.091Z,6.30
2018-04-07T02:37:14.291Z,5.90
2018-04-07T02:38:14.454Z,4.90
2018-04-07T02:39:14.610Z,8.00
2018-04-07T02:40:14.765Z,9.10
2018-04-07T02:41:14.936Z,5.40
2018-04-07T02:42:15.219Z,5.30
2018-04-07T02:43:15.265Z,8.40
2018-04-07T02:44:15.424Z,6.10
2018-04-07T02:45:15.582Z,10.00
2018-04-07T02:46:15.743Z,5.70
2018-04-07T02:47:15.919Z,8.60
2018-04-07T02:48:16.059Z,5.50
2018-04-07T02:49:16.220Z,5.90
2018-04-07T02:50:16.512Z,5.30
2018-04-07T02:51:16.560Z,6.90
2018-04-07T02:52:16.731Z,8.10
2018-04-07T02:53:16.887Z,5.40
2018-04-07T02:54:17.043Z,6.50
2018-04-07T02:55:17.203Z,6.80
2018-04-07T02:56:17.367Z,6.90
2018-04-07T02:57:17.597Z,5.30
2018-04-07T02:58:17.889Z,8.00
2018-04-07T02:59:17.791Z,6.40
2018-04-07T03:00:17.955Z,5.30
2018-04-07T03:01:18.121Z,7.10
2018-04-07T03:02:18.294Z,8.10
2018-04-07T03:03:18.455Z,6.10
2018-04-07T03:04:18.616Z,7.80
2018-04-07T03:05:18.987Z,7.10
2018-04-07T03:06:18.935Z,6.30
2018-04-07T03:07:19.098Z,7.90
2018-04-07T03:08:19.268Z,5.30
2018-04-07T03:09:19.430Z,6.70
2018-04-07T03:10:19.593Z,8.70
2018-04-07T03:11:19.759Z,6.70
2018-04-07T03:12:19.924Z,6.40
2018-04-07T03:13:20.083Z,6.70
2018-04-07T03:14:20.240Z,4.60
2018-04-07T03:15:20.409Z,7.90
2018-04-07T03:16:20.576Z,7.40
2018-04-07T03:17:20.735Z,5.80
2018-04-07T03:18:20.895Z,6.10
2018-04-07T03:19:21.047Z,6.30
2018-04-07T03:20:21.218Z,7.40
2018-04-07T03:21:21.370Z,7.50
2018-04-07T03:22:21.531Z,5.60
2018-04-07T03:23:21.678Z,5.30
2018-04-07T03:24:21.862Z,6.40
2018-04-07T03:25:22.027Z,6.50
2018-04-07T03:26:22.188Z,5.00
2018-04-07T03:27:22.351Z,6.20
2018-04-07T03:28:22.514Z,6.90
2018-04-07T03:29:22.679Z,8.10
2018-04-07T03:30:22.844Z,7.50
2018-04-07T03:31:23.004Z,7.90
2018-04-07T03:32:23.170Z,5.90
2018-04-07T03:33:23.330Z,5.50
2018-04-07T03:34:23.499Z,8.00
2018-04-07T03:35:23.676Z,8.30
2018-04-07T03:36:23.824Z,6.40
2018-04-07T03:37:23.998Z,5.70
2018-04-07T03:38:24.150Z,6.70
2018-04-07T03:39:24.322Z,4.80
2018-04-07T03:40:24.481Z,7.10
2018-04-07T03:41:24.643Z,8.90
2018-04-07T03:42:24.815Z,6.60
2018-04-07T03:43:24.966Z,5.90
2018-04-07T03:44:25.122Z,7.90
2018-04-07T03:45:25.348Z,5.70
2018-04-07T03:46:25.512Z,8.50
2018-04-07T03:47:25.676Z,5.60
2018-04-07T03:48:25.833Z,6.40
2018-04-07T03:49:26.002Z,6.40
2018-04-07T03:50:26.174Z,7.40
2018-04-07T03:51:26.331Z,6.80
2018-04-07T03:52:26.490Z,6.80
2018-04-07T03:53:26.650Z,6.70
2018-04-07T03:54:26.821Z,6.00
2018-04-07T03:55:26.974Z,6.60
2018-04-07T03:56:27.142Z,7.40
2018-04-07T03:57:27.306Z,9.00
2018-04-07T03:58:27.483Z,7.10
2018-04-07T03:59:28.636Z,6.00
2018-04-07T04:00:29.027Z,8.00
2018-04-07T04:01:28.235Z,8.40
2018-04-07T04:02:28.109Z,8.50
2018-04-07T04:03:28.277Z,10.60
2018-04-07T04:04:28.448Z,8.10
2018-04-07T04:05:28.607Z,8.20
2018-04-07T04:06:28.778Z,8.10
2018-04-07T04:07:28.936Z,7.10
2018-04-07T04:08:29.094Z,7.90
2018-04-07T04:09:29.251Z,7.20
2018-04-07T04:10:29.429Z,6.40
2018-04-07T04:11:29.594Z,5.40
2018-04-07T04:12:29.756Z,7.30
2018-04-07T04:13:29.916Z,7.60
2018-04-07T04:14:30.078Z,5.80
2018-04-07T04:15:30.236Z,5.40
2018-04-07T04:16:30.399Z,6.40
2018-04-07T04:17:30.577Z,7.20
2018-04-07T04:18:30.753Z,7.50
2018-04-07T04:19:30.913Z,5.50
2018-04-07T04:20:31.092Z,7.40
2018-04-07T04:21:31.261Z,6.20
2018-04-07T04:22:31.445Z,6.70
2018-04-07T04:23:31.609Z,7.40
2018-04-07T04:24:31.772Z,6.10
2018-04-07T04:25:31.960Z,6.30
2018-04-07T04:26:32.132Z,6.90
2018-04-07T04:27:32.301Z,9.50
2018-04-07T04:28:32.467Z,6.30
2018-04-07T04:29:32.628Z,6.30
2018-04-07T04:30:32.795Z,6.00
2018-04-07T04:31:32.949Z,6.20
2018-04-07T04:32:33.109Z,5.50
2018-04-07T04:33:33.276Z,7.50
2018-04-07T04:34:33.429Z,6.00
2018-04-07T04:35:33.591Z,7.10
2018-04-07T04:36:33.751Z,6.90
2018-04-07T04:37:33.914Z,5.10
2018-04-07T04:38:34.078Z,9.20
2018-04-07T04:39:34.240Z,10.70
2018-04-07T04:40:34.401Z,6.30
2018-04-07T04:41:34.567Z,9.30
2018-04-07T04:42:34.739Z,6.40
2018-04-07T04:43:34.898Z,10.90
2018-04-07T04:44:35.058Z,8.60
2018-04-07T04:45:35.213Z,9.40
2018-04-07T04:46:35.375Z,10.70
2018-04-07T04:47:35.541Z,6.80
2018-04-07T04:48:35.702Z,7.00
2018-04-07T04:49:35.866Z,6.10
2018-04-07T04:50:36.037Z,6.90
2018-04-07T04:51:36.202Z,8.60
2018-04-07T04:52:36.372Z,7.30
2018-04-07T04:53:36.538Z,7.30
2018-04-07T04:54:36.698Z,7.70
2018-04-07T04:55:36.850Z,10.20
2018-04-07T04:56:37.019Z,8.90
2018-04-07T04:57:37.181Z,8.40
2018-04-07T04:58:37.345Z,7.80
2018-04-07T04:59:37.509Z,7.00
2018-04-07T05:00:37.670Z,8.30
2018-04-07T05:01:37.844Z,10.00
2018-04-07T05:02:37.997Z,7.00
2018-04-07T05:03:38.155Z,7.10
2018-04-07T05:04:38.323Z,10.30
2018-04-07T05:05:38.485Z,7.50
2018-04-07T05:06:38.648Z,7.70
2018-04-07T05:07:38.803Z,6.70
2018-04-07T05:08:38.966Z,9.30
2018-04-07T05:09:39.123Z,6.50
2018-04-07T05:10:39.284Z,10.60
2018-04-07T05:11:39.444Z,11.90
2018-04-07T05:12:39.610Z,9.60
2018-04-07T05:13:39.770Z,7.90
2018-04-07T05:14:39.939Z,6.60
2018-04-07T05:15:40.102Z,7.50
2018-04-07T05:16:40.261Z,9.70
2018-04-07T05:17:40.433Z,9.30
2018-04-07T05:18:40.589Z,9.20
2018-04-07T05:19:40.753Z,7.30
2018-04-07T05:20:40.912Z,9.00
2018-04-07T05:21:41.080Z,8.50
2018-04-07T05:22:41.247Z,8.40
2018-04-07T05:23:41.403Z,9.50
2018-04-07T05:24:41.569Z,8.70
2018-04-07T05:25:41.742Z,11.80
2018-04-07T05:26:41.897Z,8.20
2018-04-07T05:27:42.067Z,6.70
2018-04-07T05:28:42.245Z,6.60
2018-04-07T05:29:42.386Z,9.80
2018-04-07T05:30:42.566Z,7.80
2018-04-07T05:31:42.726Z,9.10
2018-04-07T05:32:42.913Z,9.70
2018-04-07T05:33:43.060Z,7.60
2018-04-07T05:34:43.226Z,10.10
2018-04-07T05:35:43.394Z,7.80
2018-04-07T05:36:43.563Z,8.20
2018-04-07T05:37:43.723Z,8.00
2018-04-07T05:38:43.900Z,7.50
2018-04-07T05:39:44.054Z,9.10
2018-04-07T05:40:44.220Z,8.60
2018-04-07T05:41:44.379Z,8.50
2018-04-07T05:42:44.552Z,9.40
2018-04-07T05:43:44.712Z,8.90
2018-04-07T05:44:44.874Z,7.80
2018-04-07T05:45:45.047Z,6.50
2018-04-07T05:46:45.206Z,6.60
2018-04-07T05:47:45.372Z,6.90
2018-04-07T05:48:45.549Z,8.80
2018-04-07T05:49:45.710Z,11.40
2018-04-07T05:50:45.871Z,7.20
2018-04-07T05:51:46.029Z,8.90
2018-04-07T05:52:46.192Z,7.80
2018-04-07T05:53:46.356Z,7.20
2018-04-07T05:54:46.539Z,7.30
2018-04-07T05:55:46.669Z,8.30
2018-04-07T05:56:46.832Z,7.30
2018-04-07T05:57:46.997Z,10.60
2018-04-07T05:58:47.160Z,8.10
2018-04-07T05:59:47.325Z,7.20
2018-04-07T06:00:47.491Z,10.40
2018-04-07T06:01:47.659Z,6.20
2018-04-07T06:02:47.810Z,9.10
2018-04-07T06:03:47.972Z,9.70
2018-04-07T06:04:48.133Z,9.70
2018-04-07T06:05:48.299Z,8.60
2018-04-07T06:06:48.462Z,8.70
2018-04-07T06:07:48.629Z,9.80
2018-04-07T06:08:48.786Z,9.10
2018-04-07T06:09:48.950Z,9.40
2018-04-07T06:10:49.115Z,10.10
2018-04-07T06:11:49.279Z,10.50
2018-04-07T06:12:49.457Z,10.40
2018-04-07T06:13:49.617Z,8.40
2018-04-07T06:14:49.792Z,10.70
2018-04-07T06:15:49.940Z,9.80
2018-04-07T06:16:50.110Z,8.20
2018-04-07T06:17:50.267Z,13.60
2018-04-07T06:18:50.439Z,9.30
2018-04-07T06:19:50.603Z,10.80
2018-04-07T06:20:50.780Z,9.70
2018-04-07T06:21:50.954Z,10.50
2018-04-07T06:22:51.152Z,8.90
2018-04-07T06:23:51.318Z,7.70
2018-04-07T06:24:51.455Z,10.20
2018-04-07T06:25:51.619Z,8.20
2018-04-07T06:26:51.781Z,12.50
2018-04-07T06:27:51.945Z,9.00
2018-04-07T06:28:52.121Z,13.40
2018-04-07T06:29:52.288Z,12.50
2018-04-07T06:30:52.448Z,7.90
2018-04-07T06:31:52.608Z,8.20
2018-04-07T06:32:52.768Z,11.20
2018-04-07T06:33:52.934Z,13.90
2018-04-07T06:34:53.122Z,9.40
2018-04-07T06:35:53.263Z,7.90
2018-04-07T06:36:53.435Z,8.80
2018-04-07T06:37:53.582Z,9.30
2018-04-07T06:38:53.746Z,10.90
2018-04-07T06:39:53.907Z,8.60
2018-04-07T06:40:54.073Z,9.50
2018-04-07T06:41:54.263Z,8.50
2018-04-07T06:42:54.404Z,10.40
2018-04-07T06:43:54.561Z,9.30
2018-04-07T06:44:54.733Z,9.40
2018-04-07T06:45:54.899Z,8.80
2018-04-07T06:46:55.062Z,10.00
2018-04-07T06:47:55.227Z,14.00
2018-04-07T06:48:55.389Z,9.10
2018-04-07T06:49:55.560Z,10.90
2018-04-07T06:50:55.724Z,10.20
2018-04-07T06:51:55.892Z,10.80
2018-04-07T06:52:56.054Z,9.30
2018-04-07T06:53:56.222Z,10.30
2018-04-07T06:54:56.398Z,10.90
2018-04-07T06:55:56.555Z,10.00
2018-04-07T06:56:56.724Z,10.60
2018-04-07T06:57:56.890Z,11.30
2018-04-07T06:58:57.060Z,10.30
2018-04-07T06:59:57.228Z,9.00
2018-04-07T07:00:57.391Z,10.30
2018-04-07T07:01:57.556Z,10.00
2018-04-07T07:02:57.727Z,11.00
2018-04-07T07:03:57.886Z,10.10
2018-04-07T07:04:58.051Z,11.70
2018-04-07T07:05:58.226Z,10.20
2018-04-07T07:06:58.395Z,10.00
2018-04-07T07:07:58.569Z,11.90
2018-04-07T07:08:58.733Z,9.70
2018-04-07T07:09:58.876Z,11.30
2018-04-07T07:10:59.078Z,12.60
2018-04-07T07:11:59.204Z,11.00
2018-04-07T07:12:59.374Z,12.70
2018-04-07T07:13:59.536Z,10.30
2018-04-07T07:15:00.247Z,13.90
2018-04-07T07:15:59.961Z,11.60
2018-04-07T07:17:00.116Z,13.80
2018-04-07T07:18:00.280Z,9.50
2018-04-07T07:19:00.444Z,9.00
2018-04-07T07:20:00.614Z,10.50
2018-04-07T07:21:00.785Z,12.80
2018-04-07T07:22:00.946Z,11.00
2018-04-07T07:23:01.108Z,11.10
2018-04-07T07:24:01.283Z,13.80
2018-04-07T07:25:01.446Z,12.10
2018-04-07T07:26:01.605Z,9.70
2018-04-07T07:27:01.769Z,11.30
2018-04-07T07:28:01.939Z,13.10
2018-04-07T07:29:02.108Z,8.50
2018-04-07T07:30:02.274Z,11.40
2018-04-07T07:31:02.444Z,9.40
2018-04-07T07:32:02.614Z,10.30
2018-04-07T07:33:02.793Z,8.90
2018-04-07T07:34:02.964Z,9.00
2018-04-07T07:35:03.134Z,10.70
2018-04-07T07:36:03.305Z,10.70
2018-04-07T07:37:03.482Z,10.40
2018-04-07T07:38:03.649Z,12.30
2018-04-07T07:39:03.807Z,10.30
2018-04-07T07:40:03.973Z,9.70
2018-04-07T07:41:04.142Z,8.90
2018-04-07T07:42:04.351Z,10.40
2018-04-07T07:43:04.483Z,11.20
2018-04-07T07:44:04.681Z,9.20
2018-04-07T07:45:04.851Z,9.40
2018-04-07T07:46:05.024Z,9.30
2018-04-07T07:47:05.200Z,10.50
2018-04-07T07:48:05.358Z,10.90
2018-04-07T07:49:05.522Z,8.40
2018-04-07T07:50:05.689Z,16.60
2018-04-07T07:51:05.858Z,10.30
2018-04-07T07:52:06.027Z,10.90
2018-04-07T07:53:06.195Z,8.00
2018-04-07T07:54:06.361Z,8.90
2018-04-07T07:55:06.529Z,9.20
2018-04-07T07:56:06.708Z,6.90
2018-04-07T07:57:06.885Z,9.60
2018-04-07T07:58:07.055Z,7.30
2018-04-07T07:59:07.237Z,9.70
2018-04-07T08:00:07.387Z,9.30
2018-04-07T08:01:07.563Z,8.00
2018-04-07T08:02:07.741Z,6.50
2018-04-07T08:03:07.910Z,10.70
2018-04-07T08:04:08.084Z,8.50
2018-04-07T08:05:08.276Z,7.00
2018-04-07T08:06:08.434Z,8.60
2018-04-07T08:07:08.601Z,6.70
2018-04-07T08:08:08.773Z,8.20
2018-04-07T08:09:08.953Z,8.70
2018-04-07T08:10:09.112Z,8.00
2018-04-07T08:11:09.280Z,8.10
2018-04-07T08:12:09.454Z,10.60
2018-04-07T08:13:09.631Z,10.70
2018-04-07T08:14:09.798Z,8.40
2018-04-07T08:15:10.003Z,8.30
2018-04-07T08:16:10.171Z,7.80
2018-04-07T08:17:10.339Z,8.50
2018-04-07T08:18:10.512Z,9.80
2018-04-07T08:19:10.677Z,8.20
2018-04-07T08:20:10.854Z,8.40
2018-04-07T08:21:11.036Z,8.60
2018-04-07T08:22:11.191Z,8.30
2018-04-07T08:23:11.383Z,8.90
2018-04-07T08:24:11.538Z,8.40
2018-04-07T08:25:11.720Z,6.50
2018-04-07T08:26:11.896Z,8.30
2018-04-07T08:27:12.045Z,8.40
2018-04-07T08:28:12.240Z,9.70
2018-04-07T08:29:12.415Z,7.70
2018-04-07T08:30:12.575Z,6.90
2018-04-07T08:31:12.771Z,10.80
2018-04-07T08:32:12.996Z,8.20
2018-04-07T08:33:13.096Z,7.10
2018-04-07T08:34:13.248Z,7.40
2018-04-07T08:35:13.417Z,8.20
2018-04-07T08:36:13.592Z,8.20
2018-04-07T08:37:14.896Z,7.90
2018-04-07T08:38:13.960Z,8.00
2018-04-07T08:39:14.133Z,8.90
2018-04-07T08:40:14.297Z,8.30
2018-04-07T08:41:14.493Z,9.00
2018-04-07T08:42:29.432Z,8.50
2018-04-07T08:43:14.917Z,9.30
2018-04-07T08:44:15.077Z,7.50
2018-04-07T08:45:15.241Z,7.50
2018-04-07T08:46:15.408Z,7.60
2018-04-07T08:47:15.597Z,7.80
2018-04-07T08:48:15.756Z,7.60
2018-04-07T08:49:15.947Z,8.30
2018-04-07T08:50:16.110Z,8.40
2018-04-07T08:51:16.292Z,10.00
2018-04-07T08:52:16.475Z,8.00
2018-04-07T08:53:16.681Z,6.90
2018-04-07T08:54:16.860Z,9.40
2018-04-07T08:55:17.037Z,8.10
2018-04-07T08:56:17.210Z,9.40
2018-04-07T08:57:17.408Z,7.90
2018-04-07T08:58:17.574Z,7.80
2018-04-07T08:59:17.748Z,6.80
2018-04-07T09:00:17.934Z,7.10
2018-04-07T09:01:18.121Z,6.70
2018-04-07T09:02:18.294Z,6.80
2018-04-07T09:03:18.474Z,7.30
2018-04-07T09:04:18.654Z,8.20
2018-04-07T09:05:18.843Z,6.90
2018-04-07T09:06:19.018Z,8.90
2018-04-07T09:07:19.187Z,8.40
2018-04-07T09:08:19.376Z,10.30
2018-04-07T09:09:19.545Z,8.00
2018-04-07T09:10:19.737Z,10.90
2018-04-07T09:11:19.922Z,8.20
2018-04-07T09:12:20.107Z,9.70
2018-04-07T09:13:20.269Z,7.40
2018-04-07T09:14:20.448Z,8.30
2018-04-07T09:15:20.663Z,8.50
2018-04-07T09:16:20.845Z,7.80
2018-04-07T09:17:21.029Z,9.00
2018-04-07T09:18:21.228Z,9.30
2018-04-07T09:19:21.411Z,9.20
2018-04-07T09:20:21.601Z,8.70
2018-04-07T09:21:21.785Z,8.50
2018-04-07T09:22:21.967Z,11.70
2018-04-07T09:23:22.158Z,10.50
2018-04-07T09:24:22.352Z,9.40
2018-04-07T09:25:22.527Z,10.50
2018-04-07T09:26:22.712Z,11.30
2018-04-07T09:27:22.901Z,10.00
2018-04-07T09:28:23.079Z,10.70
2018-04-07T09:29:23.268Z,10.80
2018-04-07T09:30:23.456Z,8.40
2018-04-07T09:31:23.645Z,8.80
2018-04-07T09:32:23.824Z,11.00
2018-04-07T09:33:24.029Z,9.00
2018-04-07T09:34:24.212Z,7.90
2018-04-07T09:35:24.395Z,8.90
2018-04-07T09:36:24.593Z,8.60
2018-04-07T09:37:24.778Z,8.40
2018-04-07T09:38:24.966Z,9.10
2018-04-07T09:39:25.152Z,14.20
2018-04-07T09:40:25.340Z,13.60
2018-04-07T09:41:25.515Z,18.50
2018-04-07T09:42:25.706Z,10.80
2018-04-07T09:43:25.889Z,8.30
2018-04-07T09:44:26.087Z,9.10
2018-04-07T09:45:26.302Z,9.20
2018-04-07T09:46:26.482Z,9.40
2018-04-07T09:47:26.665Z,7.70
2018-04-07T09:49:20.012Z,8.40
2018-04-07T09:50:19.327Z,46.90
2018-04-07T09:51:19.514Z,14.50
2018-04-07T09:52:19.716Z,7.10
2018-04-07T09:53:19.923Z,7.60
2018-04-07T09:54:20.120Z,8.20
2018-04-07T09:55:20.314Z,7.20
2018-04-07T09:56:20.566Z,8.00
2018-04-07T09:57:20.663Z,6.70
2018-04-07T09:58:20.905Z,7.30
2018-04-07T09:59:21.006Z,5.80
2018-04-07T10:00:21.206Z,6.20
2018-04-07T10:01:21.403Z,5.30
2018-04-07T10:02:21.677Z,6.70
2018-04-07T10:03:21.738Z,7.00
2018-04-07T10:04:21.818Z,8.70
2018-04-07T10:05:22.011Z,5.20
2018-04-07T10:06:22.182Z,5.80
2018-04-07T10:07:22.404Z,6.90
2018-04-07T10:08:22.549Z,5.30
2018-04-07T10:09:22.754Z,5.60
2018-04-07T10:10:22.936Z,5.50
2018-04-07T10:11:23.157Z,6.30
2018-04-07T10:12:23.389Z,7.10
2018-04-07T10:13:23.500Z,7.30
2018-04-07T10:14:23.680Z,6.30
2018-04-07T10:15:23.889Z,6.60
2018-04-07T10:16:24.072Z,4.70
2018-04-07T10:17:24.256Z,6.00
2018-04-07T10:18:24.465Z,4.90
2018-04-07T10:19:24.653Z,6.90
2018-04-07T10:20:24.857Z,4.80
2018-04-07T10:21:25.040Z,4.00
2018-04-07T10:22:25.222Z,4.10
2018-04-07T10:23:25.405Z,5.70
2018-04-07T10:24:25.604Z,6.50
2018-04-07T10:25:25.797Z,5.00
2018-04-07T10:26:25.985Z,5.10
2018-04-07T10:27:26.161Z,4.40
2018-04-07T10:28:26.352Z,5.90
2018-04-07T10:29:26.561Z,4.00
2018-04-07T10:30:26.743Z,4.20
2018-04-07T10:31:26.912Z,4.60
2018-04-07T10:32:27.105Z,4.60
2018-04-07T10:33:27.297Z,6.30
2018-04-07T10:34:27.481Z,4.30
2018-04-07T10:35:27.663Z,7.60
2018-04-07T10:36:27.857Z,4.40
2018-04-07T10:37:28.050Z,4.20
2018-04-07T10:38:28.254Z,4.00
2018-04-07T10:39:28.440Z,4.30
2018-04-07T10:40:28.620Z,4.30
2018-04-07T10:41:28.816Z,4.20
2018-04-07T10:42:29.017Z,4.40
2018-04-07T10:43:29.213Z,4.60
2018-04-07T10:44:29.405Z,5.00
2018-04-07T10:45:29.585Z,6.20
2018-04-07T10:46:29.784Z,3.70
2018-04-07T10:47:29.984Z,4.70
2018-04-07T10:48:30.186Z,3.90
2018-04-07T10:49:30.374Z,4.20
2018-04-07T10:50:30.580Z,3.30
2018-04-07T10:51:30.784Z,3.60
2018-04-07T10:52:31.008Z,4.30
2018-04-07T10:53:31.143Z,5.30
2018-04-07T10:54:31.340Z,6.60
2018-04-07T10:55:31.533Z,4.60
2018-04-07T10:56:31.737Z,4.80
2018-04-07T10:57:31.912Z,4.70
2018-04-07T10:58:32.113Z,3.80
2018-04-07T10:59:32.297Z,4.20
2018-04-07T11:00:32.501Z,3.30
2018-04-07T11:01:32.691Z,3.60
2018-04-07T11:02:32.883Z,4.40
2018-04-07T11:03:33.092Z,3.70
2018-04-07T11:04:33.272Z,4.10
2018-04-07T11:05:33.463Z,4.10
2018-04-07T11:06:33.640Z,3.70
2018-04-07T11:07:33.861Z,4.20
2018-04-07T11:08:34.097Z,3.40
2018-04-07T11:09:34.191Z,3.90
2018-04-07T11:10:34.396Z,4.50
2018-04-07T11:11:34.604Z,5.70
2018-04-07T11:12:34.794Z,3.50
2018-04-07T11:13:34.988Z,5.10
2018-04-07T11:14:35.175Z,3.90
2018-04-07T11:15:35.379Z,3.70
2018-04-07T11:16:35.596Z,5.90
2018-04-07T11:17:35.785Z,7.10
2018-04-07T11:18:35.995Z,3.20
2018-04-07T11:19:36.180Z,3.60
2018-04-07T11:20:36.385Z,3.70
2018-04-07T11:21:36.560Z,5.00
2018-04-07T11:22:36.776Z,4.50
2018-04-07T11:23:36.953Z,4.50
2018-04-07T11:24:37.145Z,3.20
2018-04-07T11:25:37.340Z,7.20
2018-04-07T11:26:37.537Z,4.10
2018-04-07T11:27:37.735Z,5.20
2018-04-07T11:28:37.933Z,5.60
2018-04-07T11:29:38.117Z,4.80
2018-04-07T11:30:38.324Z,3.50
2018-04-07T11:31:38.529Z,3.80
2018-04-07T11:32:38.713Z,3.50
2018-04-07T11:33:38.911Z,4.00
2018-04-07T11:34:39.112Z,3.80
2018-04-07T11:35:39.308Z,4.30
2018-04-07T11:36:39.505Z,3.50
2018-04-07T11:37:39.704Z,3.90
2018-04-07T11:38:39.913Z,3.90
2018-04-07T11:39:40.080Z,3.60
2018-04-07T11:40:40.293Z,3.60
2018-04-07T11:41:40.476Z,6.50
2018-04-07T11:42:40.718Z,4.70
2018-04-07T11:43:40.889Z,4.10
2018-04-07T11:44:41.097Z,3.20
2018-04-07T11:45:41.293Z,3.50
2018-04-07T11:46:41.484Z,3.60
2018-04-07T11:47:41.676Z,3.40
2018-04-07T11:48:41.883Z,5.50
2018-04-07T11:49:42.075Z,3.30
2018-04-07T11:50:42.279Z,3.00
2018-04-07T11:51:42.464Z,2.90
2018-04-07T11:52:42.684Z,2.80
2018-04-07T11:53:42.875Z,4.00
2018-04-07T11:54:43.082Z,3.00
2018-04-07T11:55:43.289Z,2.70
2018-04-07T11:56:44.468Z,2.90
2018-04-07T11:57:43.679Z,3.30
2018-04-07T11:58:44.043Z,2.90
2018-04-07T11:59:44.046Z,2.60
2018-04-07T12:00:44.248Z,3.60
2018-04-07T12:01:44.431Z,2.60
2018-04-07T12:02:44.686Z,3.70
2018-04-07T12:03:44.844Z,3.30
2018-04-07T12:04:45.048Z,3.50
2018-04-07T12:05:45.236Z,4.10
2018-04-07T12:06:45.445Z,3.50
2018-04-07T12:07:45.630Z,2.80
2018-04-07T12:08:45.838Z,3.40
2018-04-07T12:09:46.040Z,4.30
2018-04-07T12:10:46.202Z,2.80
2018-04-07T12:11:46.412Z,3.50
2018-04-07T12:12:46.607Z,4.40
2018-04-07T12:13:46.811Z,3.20
2018-04-07T12:14:47.013Z,2.60
2018-04-07T12:15:47.204Z,3.30
2018-04-07T12:16:47.407Z,2.60
2018-04-07T12:17:47.620Z,2.20
2018-04-07T12:18:47.926Z,3.20
2018-04-07T12:19:47.959Z,3.70
2018-04-07T12:20:48.376Z,2.90
2018-04-07T12:21:48.568Z,2.40
2018-04-07T12:22:48.660Z,2.60
2018-04-07T12:23:48.859Z,2.80
2018-04-07T12:24:49.045Z,4.10
2018-04-07T12:25:49.336Z,2.30
2018-04-07T12:26:49.531Z,3.00
2018-04-07T12:27:49.664Z,2.60
2018-04-07T12:28:49.875Z,4.70
2018-04-07T12:29:50.035Z,3.90
2018-04-07T12:30:50.258Z,3.20
2018-04-07T12:31:50.412Z,3.80
2018-04-07T12:32:50.602Z,2.50
2018-04-07T12:33:50.784Z,2.60
2018-04-07T12:34:50.978Z,3.10
2018-04-07T12:35:51.176Z,2.80
2018-04-07T12:36:51.371Z,3.00
2018-04-07T12:37:51.553Z,3.20
2018-04-07T12:38:51.731Z,2.30
2018-04-07T12:39:51.924Z,2.40
2018-04-07T12:40:52.198Z,2.30
2018-04-07T12:41:52.262Z,2.50
2018-04-07T12:42:52.527Z,3.30
2018-04-07T12:43:52.610Z,2.70
2018-04-07T12:44:52.800Z,4.90
2018-04-07T12:45:53.064Z,3.20
2018-04-07T12:46:53.196Z,3.50
2018-04-07T12:47:53.397Z,3.00
2018-04-07T12:48:53.589Z,2.50
2018-04-07T12:49:53.773Z,3.10
2018-04-07T12:50:53.957Z,3.80
2018-04-07T12:51:54.142Z,4.80
2018-04-07T12:52:54.335Z,2.50
2018-04-07T12:53:54.524Z,2.20
2018-04-07T12:54:54.711Z,2.30
2018-04-07T12:55:54.900Z,3.20
2018-04-07T12:56:55.086Z,3.10
2018-04-07T12:57:55.273Z,4.20
2018-04-07T12:58:55.448Z,2.50
2018-04-07T12:59:55.639Z,3.10
2018-04-07T13:00:55.828Z,3.00
2018-04-07T13:01:56.023Z,4.00
2018-04-07T13:02:56.330Z,2.30
2018-04-07T13:03:56.384Z,3.10
2018-04-07T13:04:56.602Z,2.30
2018-04-07T13:05:56.788Z,2.60
2018-04-07T13:06:57.008Z,2.40
2018-04-07T13:07:57.166Z,2.10
2018-04-07T13:08:57.346Z,2.50
2018-04-07T13:09:57.722Z,3.40
2018-04-07T13:10:57.767Z,4.10
2018-04-07T13:11:57.957Z,2.40
2018-04-07T13:12:58.139Z,3.10
2018-04-07T13:13:58.331Z,4.00
2018-04-07T13:14:58.519Z,2.30
2018-04-07T13:15:58.702Z,3.00
2018-04-07T13:16:58.894Z,2.50
2018-04-07T13:17:59.074Z,3.40
2018-04-07T13:18:59.339Z,3.50